Terminal Aerodrome Forecast
Issued by NWS Wichita, KS

Home | Current Version | Previous Version | Text Only | Print | Product List | Glossary On
Versions: 1 2 3 4 5 6 7 8 9 10 11 12 13 14 15 16 17
000
FTUS43 KICT 171700
TAFICT
TAF
KICT 171720Z 1718/1818 23010KT P6SM SCT040
     FM172000 VRB06KT P6SM SCT035
     FM172300 09009KT P6SM SCT030
     FM180600 09011KT 4SM BR SCT003 BKN008=

USA.gov is the U.S. government's official web portal to all federal, state and local government web resources and services.